AirNav   TITAN Aviation Fuels
 
 1447 users online  

II9 Wilbur Wright Birthplace Heliport
Hagerstown, Indiana, USA

GOING TO HAGERSTOWN?


FAA INFORMATION EFFECTIVE 19 MAY 2022

Location

FAA Identifier: II9
Lat/Long: 39-57-15.0000N 085-14-36.0000W
39-57.250000N 085-14.600000W
39.9541667,-85.2433333
(estimated)
Elevation: 1140 ft. / 347 m
Time zone: UTC -4 (UTC -5 during Standard Time)
Zip code: 47360

Heliport Operations

Heliport use: Open to the public
Activation date: 05/2010
Control tower: no
ARTCC: INDIANAPOLIS CENTER
FSS: TERRE HAUTE FLIGHT SERVICE STATION
NOTAMs facility: HUF (NOTAM-D service available)
Attendance: MON-SAT 1000-1700
Wind indicator: yes
Segmented circle: no

Heliport Communications

CTAF: 122.9
WX AWOS-3 at CEV (16 nm S): 118.325 (765-827-6649)
WX ASOS at MIE (19 nm N): 114.4 (765-288-9617)
WX AWOS-3 at AID (19 nm NW): 128.55 (765-442-1245)

Nearby radio navigation aids

VOR radial/distance  VOR name  Freq  Var
MIEr161/18.3MUNCIE VOR/DME114.4003W
SHBr053/33.0SHELBYVILLE VOR/DME112.0001E
MZZr151/38.0MARION VOR/DME108.6003W
DQNr266/39.1DAYTON VOR/DME114.5001W

 
NDB name  Hdg/Dist  Freq  Var  ID
NEW CASTLE044/5.638506WUWL ..- .-- .-..
PNTHR338/11.822704WSQ ... --.-
BALLL168/14.136503WJN .--- -.
VIDEO122/14.139403WAI .- ..
BATESVILLE006/36.525405WHLB .... .-.. -...
METROPOLITAN091/37.133803WUMP ..- -- .--.

Heliport Services

Runway Information

Helipad H1

Dimensions: 50 x 50 ft. / 15 x 15 m
Surface: turf
Traffic pattern: leftleft

Heliport Ownership and Management from official FAA records

Ownership: Privately-owned
Owner: WILBUR WRIGHT BIRTHPLACE
1525 N CR 750 E
HAGERSTOWN, IN 47346
Phone (765) 332-2495
PRESERVATION CENTER
Manager: WILBUR WRIGHT BIRTHPLACE
1525 N CR 750 E
HAGERSTOWN, IN 47346
Phone (765) 332-2495

Additional Remarks

RY H1 MARKED WITH STONE MARKERS.
SLIGHT TERRAIN ELEVATION RISE SOUTH OF HELIPAD.
ROW OF 37 FT TREE 133 FT TO THE RIGHT AND 51 FT TREES 94 FT LEFT OF HELIPAD RUNNING N & S ALONG COUNTY ROAD, MARKED WITHORANGEMARKERS.
CALL AHEAD 765-624-8346/765-332-2495 DUE TO LIMITED PARKING.
FOR CD CTC INDIANAPOLIS APCH AT 317-227-5743.

Instrument Procedures

There are no published instrument procedures at II9.

Some nearby airports with instrument procedures:

KUWL - New Castle Henry County Airport / Marlatt Field (6 nm SW)
KCEV - Mettel Field Airport (16 nm S)
KMIE - Delaware County Regional Airport (19 nm N)
I22 - Randolph County Airport (19 nm NE)
KAID - Anderson Municipal Airport-Darlington Field (19 nm NW)
 
Loc | Ops | Rwys | IFR | FBO | Links
Com | Nav | Svcs | Stats | Notes
Aerial photo
No photo
 
Sectional chart

 
Airport distance calculator
Flying to Wilbur Wright Birthplace Heliport? Find the distance to fly.

From to II9

Sunrise and sunset
Times for 27-May-2022
 Local
(UTC-4)
 Zulu
(UTC)
Morning civil twilight05:4609:46
Sunrise06:1810:18
Sunset20:5800:58
Evening civil twilight21:3001:30

Current date and time
Zulu (UTC)  27-May-2022 15:16:40
Local (UTC-4)  27-May-2022 11:16:40
 
METAR
KMIE 
18nm NW 
271458Z 00000KT 2 1/2SM RA BR FEW005 BKN012 OVC027 16/13 A2978 RMK AO2 P0001 T01560133
KAID 
20nm NW 
271455Z AUTO 14003KT 5SM -RA SCT008 BKN015 OVC050 15/13 A2978 RMK AO2 P0002 60002 T01520131
KRID 
22nm SE 
271455Z AUTO 21011KT 10SM SCT019 BKN075 OVC085 16/14 A2979 RMK AO2
KMQJ 
31nm W 
271455Z AUTO 20006KT 4SM SCT006 SCT070 OVC075 15/15 A2978 RMK AO1
KGEZ 
34nm SW 
271502Z AUTO 27008KT 6SM -RA BKN013 BKN027 OVC047 17/14 A2977 RMK AO2 RAB1458 P0001 T01670139
KOXD 
34nm SE 
271455Z AUTO 23011KT 10SM BKN018 BKN030 OVC090 17/12 A2979 RMK AO2 60002 T01700121 P0001
KVES 
36nm NE 
271450Z AUTO 21008KT 4SM RA BKN014 OVC021 16/16 A2978 RMK AO2
KHLB 
36nm S 
271455Z AUTO VRB03KT 10SM SCT019 BKN033 OVC065 16/16 A2978 RMK A01
TAF
KDAY 
47nm E 
271132Z 2712/2812 17008KT 4SM BR VCSH OVC040 TEMPO 2712/2713 2SM -SHRA BR OVC003 FM271300 21010KT P6SM -SHRA OVC015 FM271900 24010KT P6SM -SHRA BKN035 FM280000 26008KT P6SM BKN050 FM280300 28007KT P6SM OVC015 FM280600 29006KT 4SM BR OVC008
KIND 
50nm W 
271125Z 2712/2818 20005KT P6SM VCSH FEW030 BKN120 FM271500 25007KT P6SM VCSH BKN025 FM271800 29010KT P6SM VCSH BKN035 FM280000 32011KT P6SM BKN024 FM280500 30004KT P6SM SCT180
NOTAMs
Click for the latest NOTAMs
NOTAMs are issued by the DoD/FAA and will open in a separate window not controlled by AirNav.

 

 
 

Would you like to see your business listed on this page?

 If your business provides an interesting product or service to pilots, flight crews, aircraft, or users of the Wilbur Wright Birthplace Heliport, you should consider listing it here.  To start the listing process, click on the button below
 
Add a business
 

Other Pages about Wilbur Wright Birthplace Heliport

Update a link
 
Copyright © AirNav, LLC. All rights reserved. Privacy Policy  Contact